createdAt,value
2023-03-31T00:01:52.985Z,11.80
2023-03-31T00:04:24.417Z,11.70
2023-03-31T00:06:54.366Z,11.70
2023-03-31T01:30:55.645Z,11.00
2023-03-31T01:33:28.871Z,11.00
2023-03-31T01:36:18.748Z,11.00
2023-03-31T01:39:19.869Z,11.10
2023-03-31T01:42:02.591Z,11.10
2023-03-31T01:45:01.592Z,11.10
2023-03-31T01:47:34.628Z,11.20
2023-03-31T01:50:07.071Z,11.20
2023-03-31T01:52:44.014Z,11.20
2023-03-31T01:55:20.890Z,11.20
2023-03-31T01:57:50.848Z,11.20
2023-03-31T02:00:19.729Z,11.20
2023-03-31T02:03:08.570Z,11.20
2023-03-31T02:05:50.315Z,11.20
2023-03-31T02:08:38.766Z,11.20
2023-03-31T02:11:05.812Z,11.20
2023-03-31T02:13:34.306Z,11.20
2023-03-31T02:16:03.185Z,11.20
2023-03-31T02:18:33.174Z,11.20
2023-03-31T02:21:00.458Z,11.20
2023-03-31T02:23:31.640Z,11.20
2023-03-31T02:26:10.379Z,11.20
2023-03-31T02:28:37.286Z,11.20
2023-03-31T02:31:40.012Z,11.20
2023-03-31T02:34:07.111Z,11.10
2023-03-31T02:36:34.873Z,11.10
2023-03-31T02:39:09.844Z,11.10
2023-03-31T02:41:36.709Z,11.10
2023-03-31T02:44:03.841Z,11.10
2023-03-31T02:46:30.967Z,11.10
2023-03-31T02:49:01.607Z,11.10
2023-03-31T02:51:33.781Z,11.10
2023-03-31T02:54:38.592Z,11.10
2023-03-31T02:57:20.706Z,11.10
2023-03-31T03:00:24.945Z,11.10
2023-03-31T03:03:14.454Z,11.00
2023-03-31T03:05:49.747Z,11.00
2023-03-31T03:08:49.136Z,11.00
2023-03-31T03:11:31.816Z,11.00
2023-03-31T03:14:34.353Z,11.00
2023-03-31T03:17:15.248Z,11.00
2023-03-31T03:19:42.502Z,11.00
2023-03-31T03:22:09.703Z,10.90
2023-03-31T03:24:36.543Z,10.90
2023-03-31T03:27:03.432Z,10.90
2023-03-31T03:29:30.818Z,10.90
2023-03-31T03:31:58.022Z,10.90
2023-03-31T03:34:25.660Z,10.90
2023-03-31T03:36:52.529Z,10.90
2023-03-31T03:39:19.349Z,10.90
2023-03-31T03:41:46.877Z,10.80
2023-03-31T03:44:13.749Z,10.80
2023-03-31T03:46:40.682Z,10.80
2023-03-31T03:49:07.542Z,10.80
2023-03-31T03:51:34.417Z,10.70
2023-03-31T03:54:01.212Z,10.70
2023-03-31T03:56:28.240Z,10.80
2023-03-31T03:58:55.101Z,10.70
2023-03-31T04:01:22.678Z,10.70
2023-03-31T04:03:49.604Z,10.70
2023-03-31T04:06:16.435Z,10.70
2023-03-31T04:08:43.209Z,10.70
2023-03-31T04:11:19.213Z,10.70
2023-03-31T04:13:46.588Z,10.70
2023-03-31T04:16:13.415Z,10.80
2023-03-31T04:18:42.999Z,10.80
2023-03-31T04:21:12.408Z,10.80
2023-03-31T04:23:46.633Z,10.70
2023-03-31T04:26:14.470Z,10.70
2023-03-31T04:28:42.944Z,10.80
2023-03-31T04:31:10.206Z,10.70
2023-03-31T04:33:39.893Z,10.70
2023-03-31T04:36:17.628Z,10.70
2023-03-31T04:38:46.959Z,10.70
2023-03-31T04:41:14.403Z,10.70
2023-03-31T04:43:41.263Z,10.70
2023-03-31T04:46:08.365Z,10.70
2023-03-31T04:48:35.849Z,10.70
2023-03-31T04:51:02.773Z,10.60
2023-03-31T04:53:29.762Z,10.60
2023-03-31T04:55:56.618Z,10.60
2023-03-31T04:58:23.435Z,10.60
2023-03-31T05:00:50.249Z,10.60
2023-03-31T05:03:17.252Z,10.60
2023-03-31T05:05:44.260Z,10.60
2023-03-31T05:08:11.130Z,10.60
2023-03-31T05:10:37.949Z,10.60
2023-03-31T05:13:04.766Z,10.60
2023-03-31T05:15:32.893Z,10.60
2023-03-31T05:18:01.527Z,10.60
2023-03-31T05:20:28.421Z,10.60
2023-03-31T05:22:55.602Z,10.60
2023-03-31T05:25:22.551Z,10.70
2023-03-31T05:27:49.973Z,10.70
2023-03-31T05:30:17.039Z,10.60
2023-03-31T05:32:44.022Z,10.70
2023-03-31T05:35:10.912Z,10.60
2023-03-31T05:37:37.759Z,10.60
2023-03-31T05:40:05.173Z,10.60
2023-03-31T05:42:32.006Z,10.70
2023-03-31T05:44:58.884Z,10.70
2023-03-31T05:47:25.850Z,10.70
2023-03-31T05:49:53.258Z,10.70
2023-03-31T05:52:20.070Z,10.60
2023-03-31T05:54:46.927Z,10.60
2023-03-31T05:57:13.878Z,10.60
2023-03-31T05:59:42.217Z,10.60
2023-03-31T06:02:11.541Z,10.60
2023-03-31T06:04:38.970Z,10.60
2023-03-31T06:07:06.046Z,10.50
2023-03-31T06:09:32.859Z,10.50
2023-03-31T06:11:59.662Z,10.50
2023-03-31T06:14:27.685Z,10.50
2023-03-31T06:16:56.668Z,10.50
2023-03-31T06:19:24.932Z,10.50
2023-03-31T06:21:52.609Z,10.50
2023-03-31T06:24:19.416Z,10.50
2023-03-31T06:26:46.184Z,10.50
2023-03-31T06:29:13.066Z,10.50
2023-03-31T06:31:40.031Z,10.50
2023-03-31T06:34:06.880Z,10.50
2023-03-31T06:36:33.678Z,10.60
2023-03-31T06:39:00.528Z,10.60
2023-03-31T06:41:27.475Z,10.70
2023-03-31T06:43:54.273Z,10.70
2023-03-31T06:46:21.358Z,10.80
2023-03-31T06:48:48.268Z,10.80
2023-03-31T06:51:15.102Z,10.80
2023-03-31T06:53:42.215Z,10.90
2023-03-31T06:56:09.366Z,10.90
2023-03-31T06:58:36.677Z,11.00
2023-03-31T07:01:04.716Z,11.00
2023-03-31T07:03:32.546Z,11.00
2023-03-31T07:05:59.696Z,11.00
2023-03-31T07:08:26.540Z,11.10
2023-03-31T07:10:57.965Z,11.30
2023-03-31T07:13:25.571Z,11.50
2023-03-31T07:15:52.601Z,11.70
2023-03-31T07:18:19.787Z,11.80
2023-03-31T07:20:50.701Z,11.80
2023-03-31T07:23:17.811Z,11.80
2023-03-31T07:25:45.447Z,11.80
2023-03-31T07:28:12.339Z,11.70
2023-03-31T07:30:39.894Z,11.70
2023-03-31T07:33:07.474Z,11.70
2023-03-31T07:35:40.163Z,11.60
2023-03-31T07:38:08.927Z,11.60
2023-03-31T07:40:36.342Z,11.60
2023-03-31T07:43:03.357Z,11.50
2023-03-31T07:45:30.553Z,11.50
2023-03-31T07:47:57.461Z,11.50
2023-03-31T07:50:24.387Z,11.40
2023-03-31T07:52:53.634Z,11.50
2023-03-31T07:55:20.844Z,11.50
2023-03-31T07:57:47.900Z,11.50
2023-03-31T08:00:15.826Z,11.50
2023-03-31T08:02:43.178Z,11.50
2023-03-31T08:05:11.996Z,11.50
2023-03-31T08:07:40.192Z,11.50
2023-03-31T08:10:08.392Z,11.50
2023-03-31T08:12:35.480Z,11.50
2023-03-31T08:15:02.703Z,11.40
2023-03-31T08:17:29.558Z,11.40
2023-03-31T08:19:56.475Z,11.40
2023-03-31T08:22:23.501Z,11.40
2023-03-31T08:24:50.414Z,11.40
2023-03-31T08:27:17.250Z,11.50
2023-03-31T08:29:44.075Z,11.50
2023-03-31T08:32:10.975Z,11.50
2023-03-31T08:34:38.187Z,11.60
2023-03-31T08:37:06.031Z,11.60
2023-03-31T08:39:34.199Z,11.60
2023-03-31T08:42:23.324Z,11.60
2023-03-31T08:45:07.211Z,11.60
2023-03-31T08:47:35.089Z,11.70
2023-03-31T08:50:08.267Z,11.70
2023-03-31T08:52:38.256Z,11.80
2023-03-31T08:55:17.189Z,11.80
2023-03-31T08:57:58.091Z,11.80
2023-03-31T09:00:25.056Z,11.70
2023-03-31T09:03:05.045Z,11.70
2023-03-31T09:05:59.671Z,11.70
2023-03-31T09:08:28.964Z,11.70
2023-03-31T09:10:58.545Z,11.70
2023-03-31T09:13:59.664Z,11.60
2023-03-31T09:16:35.439Z,11.60
2023-03-31T09:19:02.965Z,11.60
2023-03-31T09:21:32.787Z,11.60
2023-03-31T09:24:02.906Z,11.50
2023-03-31T09:26:43.693Z,11.50
2023-03-31T09:29:19.253Z,11.40
2023-03-31T09:31:46.899Z,11.40
2023-03-31T09:34:16.309Z,11.30
2023-03-31T09:36:43.326Z,11.30
2023-03-31T09:39:14.367Z,11.30
2023-03-31T09:41:44.210Z,11.30
2023-03-31T09:44:40.975Z,11.40
2023-03-31T09:47:20.356Z,11.50
2023-03-31T09:49:54.077Z,11.50
2023-03-31T09:52:26.063Z,11.60
2023-03-31T09:54:54.246Z,11.70
2023-03-31T09:57:39.151Z,11.80
2023-03-31T10:00:17.896Z,11.80
2023-03-31T10:02:51.571Z,11.80
2023-03-31T10:05:25.840Z,11.90
2023-03-31T10:08:24.895Z,11.80
2023-03-31T10:10:54.451Z,11.80
2023-03-31T10:13:24.403Z,11.80
2023-03-31T10:15:53.385Z,11.70
2023-03-31T10:18:37.651Z,11.60
2023-03-31T10:21:06.730Z,11.60
2023-03-31T10:23:35.119Z,11.60
2023-03-31T10:26:02.383Z,11.70
2023-03-31T10:28:32.958Z,11.70
2023-03-31T10:31:03.596Z,11.70
2023-03-31T10:33:34.782Z,11.70
2023-03-31T10:36:10.493Z,11.80
2023-03-31T10:38:40.751Z,11.80
2023-03-31T10:41:07.946Z,11.80
2023-03-31T10:43:42.634Z,11.90
2023-03-31T10:46:09.632Z,12.00
2023-03-31T10:48:44.548Z,12.00
2023-03-31T10:51:15.081Z,12.10
2023-03-31T10:53:53.062Z,12.20
2023-03-31T10:56:49.349Z,12.40
2023-03-31T10:59:41.525Z,12.50
2023-03-31T11:02:23.354Z,12.60
2023-03-31T11:05:13.279Z,12.70
2023-03-31T11:08:01.130Z,12.70
2023-03-31T11:10:49.501Z,12.80
2023-03-31T11:13:37.628Z,12.80
2023-03-31T11:16:41.856Z,12.80
2023-03-31T11:19:17.928Z,12.70
2023-03-31T11:22:29.038Z,12.80
2023-03-31T11:25:13.640Z,12.80
2023-03-31T11:27:53.536Z,12.80
2023-03-31T11:30:30.970Z,12.90
2023-03-31T11:33:03.965Z,12.80
2023-03-31T11:35:56.784Z,12.80
2023-03-31T11:38:42.383Z,12.80
2023-03-31T11:41:11.682Z,12.80
2023-03-31T11:43:49.769Z,12.80
2023-03-31T11:46:22.724Z,12.80
2023-03-31T11:49:18.757Z,12.90
2023-03-31T11:52:01.229Z,13.00
2023-03-31T11:54:46.267Z,13.10
2023-03-31T11:57:18.913Z,13.10
2023-03-31T11:59:46.073Z,13.10
2023-03-31T12:02:15.913Z,13.10
2023-03-31T12:04:44.300Z,13.10
2023-03-31T12:07:24.465Z,13.10
2023-03-31T12:10:19.667Z,13.10
2023-03-31T12:13:05.480Z,13.10
2023-03-31T12:15:38.036Z,13.20
2023-03-31T12:18:12.661Z,13.20
2023-03-31T12:21:01.378Z,13.20
2023-03-31T12:23:30.355Z,13.20
2023-03-31T12:26:09.570Z,13.30
2023-03-31T12:28:37.474Z,13.30
2023-03-31T12:31:05.236Z,13.30
2023-03-31T12:33:42.589Z,13.40
2023-03-31T12:36:31.453Z,13.40
2023-03-31T12:39:23.105Z,13.40
2023-03-31T12:42:20.102Z,13.30
2023-03-31T12:45:07.263Z,13.20
2023-03-31T12:48:03.305Z,13.20
2023-03-31T12:50:48.070Z,13.30
2023-03-31T12:53:15.892Z,13.50
2023-03-31T12:56:04.280Z,13.90
2023-03-31T12:58:33.077Z,14.20
2023-03-31T13:01:23.028Z,14.50
2023-03-31T13:03:53.530Z,14.70
2023-03-31T13:06:26.312Z,15.00
2023-03-31T13:09:11.758Z,15.10
2023-03-31T13:11:40.604Z,15.00
2023-03-31T13:14:27.373Z,14.90
2023-03-31T13:17:11.173Z,14.70
2023-03-31T13:19:37.932Z,14.70
2023-03-31T13:22:05.522Z,14.60
2023-03-31T13:24:32.630Z,14.60
2023-03-31T13:27:18.949Z,14.70
2023-03-31T13:29:46.873Z,15.00
2023-03-31T13:32:26.198Z,15.30
2023-03-31T13:35:04.199Z,15.50
2023-03-31T13:37:52.877Z,15.60
2023-03-31T13:40:56.345Z,15.60
2023-03-31T13:43:34.054Z,15.60
2023-03-31T13:46:16.093Z,15.50
2023-03-31T13:48:51.555Z,15.40
2023-03-31T13:51:42.865Z,15.20
2023-03-31T13:54:32.568Z,14.70
2023-03-31T13:57:27.643Z,14.30
2023-03-31T14:00:17.058Z,13.90
2023-03-31T14:03:24.985Z,13.60
2023-03-31T14:06:05.932Z,13.30
2023-03-31T14:08:38.928Z,13.00
2023-03-31T14:11:16.663Z,12.80
2023-03-31T14:13:43.524Z,12.60
2023-03-31T14:16:10.728Z,12.40
2023-03-31T14:18:38.801Z,12.10
2023-03-31T14:21:18.042Z,11.90
2023-03-31T14:24:26.401Z,11.80
2023-03-31T14:27:08.085Z,11.60
2023-03-31T14:29:43.025Z,11.60
2023-03-31T14:32:32.631Z,11.50
2023-03-31T14:35:03.553Z,11.50
2023-03-31T14:37:30.911Z,11.50
2023-03-31T14:39:58.889Z,11.50
2023-03-31T14:42:39.788Z,11.60
2023-03-31T14:45:15.765Z,11.70
2023-03-31T14:47:42.668Z,11.70
2023-03-31T14:50:13.554Z,11.70
2023-03-31T14:52:41.001Z,11.60
2023-03-31T14:55:17.139Z,11.70
2023-03-31T14:57:45.815Z,11.70
2023-03-31T15:00:15.782Z,11.60
2023-03-31T15:02:44.768Z,11.60
2023-03-31T15:05:25.546Z,11.60
2023-03-31T15:07:52.437Z,11.50
2023-03-31T15:10:21.779Z,11.50
2023-03-31T15:12:49.250Z,11.50
2023-03-31T15:15:16.340Z,11.40
2023-03-31T15:17:43.339Z,11.40
2023-03-31T15:20:28.135Z,11.40
2023-03-31T15:22:56.958Z,11.40
2023-03-31T15:25:37.813Z,11.50
2023-03-31T15:28:08.479Z,11.50
2023-03-31T15:30:36.373Z,11.50
2023-03-31T15:33:18.017Z,11.40
2023-03-31T15:35:46.274Z,11.40
2023-03-31T15:38:16.425Z,11.30
2023-03-31T15:40:44.300Z,11.20
2023-03-31T15:46:01.197Z,11.00
2023-03-31T15:48:48.735Z,11.00
2023-03-31T15:51:19.433Z,10.90
2023-03-31T15:53:53.804Z,10.90
2023-03-31T15:56:38.280Z,11.00
2023-03-31T15:59:05.853Z,11.00
2023-03-31T16:01:41.676Z,11.00
2023-03-31T16:04:13.153Z,11.10
2023-03-31T16:06:56.611Z,11.10
2023-03-31T16:09:51.190Z,11.10
2023-03-31T16:12:22.580Z,11.20
2023-03-31T16:15:03.717Z,11.20
2023-03-31T16:17:37.125Z,11.20
2023-03-31T16:20:10.917Z,11.20
2023-03-31T16:22:43.139Z,11.20
2023-03-31T16:25:20.537Z,11.20
2023-03-31T16:27:50.446Z,11.20
2023-03-31T16:30:20.558Z,11.10
2023-03-31T16:33:07.190Z,11.10
2023-03-31T16:35:42.020Z,11.10
2023-03-31T16:38:10.522Z,11.00
2023-03-31T16:40:42.004Z,11.00
2023-03-31T16:43:16.945Z,10.90
2023-03-31T16:45:45.664Z,10.90
2023-03-31T16:48:16.397Z,10.90
2023-03-31T16:50:45.519Z,10.80
2023-03-31T16:53:16.671Z,10.70
2023-03-31T16:55:43.647Z,10.70
2023-03-31T16:58:11.287Z,10.70
2023-03-31T17:00:40.116Z,10.60
2023-03-31T17:03:08.190Z,10.60
2023-03-31T17:05:42.269Z,10.50
2023-03-31T17:08:11.750Z,10.50
2023-03-31T17:10:39.178Z,10.50
2023-03-31T17:13:06.355Z,10.50
2023-03-31T17:15:36.370Z,10.50
2023-03-31T17:18:04.295Z,10.40
2023-03-31T17:20:31.491Z,10.50
2023-03-31T17:22:58.742Z,10.50
2023-03-31T17:25:25.696Z,10.50
2023-03-31T17:27:52.729Z,10.50
2023-03-31T17:30:19.671Z,10.50
2023-03-31T17:32:46.509Z,10.50
2023-03-31T17:35:20.460Z,10.50
2023-03-31T17:37:50.505Z,10.50
2023-03-31T17:40:17.549Z,10.50
2023-03-31T17:42:44.793Z,10.50
2023-03-31T17:45:12.740Z,10.50
2023-03-31T17:47:39.929Z,10.60
2023-03-31T17:50:08.773Z,10.70
2023-03-31T17:52:36.019Z,10.80
2023-03-31T17:55:04.279Z,10.80
2023-03-31T17:57:32.065Z,10.80
2023-03-31T17:59:59.148Z,10.90
2023-03-31T18:02:26.102Z,10.90
2023-03-31T18:04:53.411Z,10.90
2023-03-31T18:07:23.157Z,10.80
2023-03-31T18:09:50.051Z,10.80
2023-03-31T18:12:17.703Z,10.80
2023-03-31T18:14:44.639Z,10.80
2023-03-31T18:17:14.777Z,10.70
2023-03-31T18:19:42.811Z,10.70
2023-03-31T18:22:09.879Z,10.70
2023-03-31T18:24:38.443Z,10.70
2023-03-31T18:27:05.682Z,10.70
2023-03-31T18:29:32.629Z,10.70
2023-03-31T18:31:59.664Z,10.70
2023-03-31T18:34:26.763Z,10.60
2023-03-31T18:36:54.017Z,10.70
2023-03-31T18:39:20.875Z,10.60
2023-03-31T18:41:48.520Z,10.60
2023-03-31T18:44:18.159Z,10.60
2023-03-31T18:46:45.772Z,10.60
2023-03-31T18:49:13.632Z,10.60
2023-03-31T18:51:40.485Z,10.60
2023-03-31T18:54:07.357Z,10.60
2023-03-31T18:56:34.251Z,10.60
2023-03-31T18:59:04.000Z,10.60
2023-03-31T19:01:32.695Z,10.60
2023-03-31T19:03:59.773Z,10.60
2023-03-31T19:06:26.975Z,10.60
2023-03-31T19:08:56.474Z,10.60
2023-03-31T19:11:23.995Z,10.60
2023-03-31T19:13:51.861Z,10.60
2023-03-31T19:16:18.912Z,10.60
2023-03-31T19:18:45.771Z,10.60
2023-03-31T19:21:12.541Z,10.60
2023-03-31T19:23:39.401Z,10.60
2023-03-31T19:26:06.219Z,10.60
2023-03-31T19:28:33.101Z,10.60
2023-03-31T19:31:02.285Z,10.60
2023-03-31T19:33:29.108Z,10.60
2023-03-31T19:35:55.957Z,10.70
2023-03-31T19:38:23.085Z,10.70
2023-03-31T19:40:50.097Z,10.80
2023-03-31T19:43:20.874Z,10.80
2023-03-31T19:45:48.259Z,10.80
2023-03-31T19:48:17.411Z,10.80
2023-03-31T19:50:51.769Z,10.80
2023-03-31T19:53:19.438Z,10.80
2023-03-31T19:56:15.875Z,10.70
2023-03-31T19:58:42.884Z,10.70
2023-03-31T20:01:18.174Z,10.70
2023-03-31T20:03:45.542Z,10.70
2023-03-31T20:06:13.839Z,10.60
2023-03-31T20:08:42.724Z,10.60
2023-03-31T20:11:12.107Z,10.60
2023-03-31T20:13:39.627Z,10.60
2023-03-31T20:16:08.320Z,10.60
2023-03-31T20:18:36.409Z,10.60
2023-03-31T20:21:11.368Z,10.60
2023-03-31T20:23:39.192Z,10.60
2023-03-31T20:26:07.843Z,10.60
2023-03-31T20:28:35.218Z,10.60
2023-03-31T20:31:19.795Z,10.60
2023-03-31T20:33:46.787Z,10.60
2023-03-31T20:36:18.196Z,10.60
2023-03-31T20:38:46.429Z,10.60
2023-03-31T20:41:13.861Z,10.60
2023-03-31T20:43:41.146Z,10.60
2023-03-31T20:46:08.717Z,10.60
2023-03-31T20:48:53.103Z,10.60
2023-03-31T20:51:21.926Z,10.70
2023-03-31T20:53:49.924Z,10.70
2023-03-31T20:56:18.680Z,10.70
2023-03-31T20:58:46.406Z,10.70
2023-03-31T21:01:13.551Z,10.70
2023-03-31T21:03:41.054Z,10.70
2023-03-31T21:06:11.601Z,10.70
2023-03-31T21:08:39.311Z,10.70
2023-03-31T21:11:06.517Z,10.80
2023-03-31T21:13:33.978Z,10.80
2023-03-31T21:16:01.188Z,10.80
2023-03-31T21:18:29.443Z,10.80
2023-03-31T21:20:57.991Z,10.90
2023-03-31T21:23:25.312Z,10.90
2023-03-31T21:25:53.528Z,10.90
2023-03-31T21:28:22.041Z,10.90
2023-03-31T21:30:55.988Z,10.90
2023-03-31T21:33:26.456Z,10.90
2023-03-31T21:35:53.750Z,10.90
2023-03-31T21:38:20.967Z,10.90
2023-03-31T21:40:48.517Z,10.90
2023-03-31T21:43:18.027Z,10.90
2023-03-31T21:45:45.150Z,10.90
2023-03-31T21:48:12.526Z,10.90
2023-03-31T21:50:40.104Z,10.90
2023-03-31T21:53:07.575Z,10.90
2023-03-31T21:55:35.867Z,10.90
2023-03-31T21:58:03.443Z,10.90
2023-03-31T22:00:31.007Z,10.90
2023-03-31T22:03:16.476Z,10.90
2023-03-31T22:05:44.788Z,10.90
2023-03-31T22:08:11.745Z,11.00
2023-03-31T22:10:39.207Z,10.90
2023-03-31T22:13:06.048Z,11.00
2023-03-31T22:15:33.105Z,11.00
2023-03-31T22:18:01.415Z,11.10
2023-03-31T22:20:28.404Z,11.10
2023-03-31T22:22:55.490Z,11.20
2023-03-31T22:25:22.387Z,11.20
2023-03-31T22:27:49.179Z,11.20
2023-03-31T22:30:16.105Z,11.20
2023-03-31T22:32:43.008Z,11.20
2023-03-31T22:35:09.980Z,11.20
2023-03-31T22:37:36.965Z,11.20
2023-03-31T22:40:04.607Z,11.20
2023-03-31T22:42:31.718Z,11.20
2023-03-31T22:44:58.546Z,11.20
2023-03-31T22:47:25.938Z,11.20
2023-03-31T22:49:52.824Z,11.20
2023-03-31T22:52:19.678Z,11.20
2023-03-31T22:54:47.071Z,11.10
2023-03-31T22:57:14.074Z,11.10
2023-03-31T22:59:41.686Z,11.10
2023-03-31T23:02:08.550Z,11.00
2023-03-31T23:04:35.465Z,11.10
2023-03-31T23:07:02.457Z,11.00
2023-03-31T23:09:29.300Z,11.00
2023-03-31T23:11:56.300Z,11.00
2023-03-31T23:14:23.116Z,11.10
2023-03-31T23:16:51.833Z,11.00
2023-03-31T23:19:18.669Z,11.00
2023-03-31T23:21:45.537Z,11.00
2023-03-31T23:24:12.408Z,11.00
2023-03-31T23:26:39.560Z,11.00
2023-03-31T23:29:06.738Z,11.00
2023-03-31T23:31:33.749Z,11.00
2023-03-31T23:34:00.874Z,11.00
2023-03-31T23:36:28.047Z,11.00
2023-03-31T23:38:55.679Z,11.00
2023-03-31T23:41:26.362Z,11.00
2023-03-31T23:43:53.707Z,11.00
2023-03-31T23:46:20.744Z,11.00
2023-03-31T23:48:48.238Z,11.00
2023-03-31T23:51:15.122Z,11.00
2023-03-31T23:53:41.935Z,11.00
2023-03-31T23:56:11.176Z,11.00
2023-03-31T23:58:38.253Z,11.00
